sensor_id;sensor_type;location;lat;lon;timestamp;pressure;altitude;pressure_sealevel;temperature;humidity
39449;BME280;25151;45.566;9.382;2023-11-21T00:02:10;99202.50;;;19.61;62.74
39449;BME280;25151;45.566;9.382;2023-11-21T00:04:38;99203.75;;;19.60;62.51
39449;BME280;25151;45.566;9.382;2023-11-21T00:07:12;99204.53;;;19.60;62.63
39449;BME280;25151;45.566;9.382;2023-11-21T00:09:38;99200.97;;;19.60;62.68
39449;BME280;25151;45.566;9.382;2023-11-21T00:12:11;99201.72;;;19.60;62.65
39449;BME280;25151;45.566;9.382;2023-11-21T00:14:44;99207.00;;;19.58;62.34
39449;BME280;25151;45.566;9.382;2023-11-21T00:17:17;99208.22;;;19.57;62.71
39449;BME280;25151;45.566;9.382;2023-11-21T00:19:45;99206.22;;;19.58;62.51
39449;BME280;25151;45.566;9.382;2023-11-21T00:22:13;99201.09;;;19.56;62.52
39449;BME280;25151;45.566;9.382;2023-11-21T00:24:42;99189.09;;;19.56;62.36
39449;BME280;25151;45.566;9.382;2023-11-21T00:27:13;99184.75;;;19.55;62.56
39449;BME280;25151;45.566;9.382;2023-11-21T00:29:40;99187.53;;;19.55;62.39
39449;BME280;25151;45.566;9.382;2023-11-21T00:32:11;99187.53;;;19.55;62.36
39449;BME280;25151;45.566;9.382;2023-11-21T00:34:40;99191.59;;;19.54;62.42
39449;BME280;25151;45.566;9.382;2023-11-21T00:37:08;99182.41;;;19.53;62.67
39449;BME280;25151;45.566;9.382;2023-11-21T00:39:37;99190.81;;;19.53;62.42
39449;BME280;25151;45.566;9.382;2023-11-21T00:42:06;99188.00;;;19.53;62.58
39449;BME280;25151;45.566;9.382;2023-11-21T00:44:37;99182.88;;;19.52;62.25
39449;BME280;25151;45.566;9.382;2023-11-21T00:47:05;99170.91;;;19.51;62.51
39449;BME280;25151;45.566;9.382;2023-11-21T00:49:31;99175.72;;;19.51;62.44
39449;BME280;25151;45.566;9.382;2023-11-21T00:52:00;99175.72;;;19.51;62.22
39449;BME280;25151;45.566;9.382;2023-11-21T00:54:32;99174.16;;;19.50;62.30
39449;BME280;25151;45.566;9.382;2023-11-21T00:57:06;99168.56;;;19.50;62.28
39449;BME280;25151;45.566;9.382;2023-11-21T00:59:34;99166.25;;;19.48;62.22
39449;BME280;25151;45.566;9.382;2023-11-21T01:02:05;99171.84;;;19.48;62.14
39449;BME280;25151;45.566;9.382;2023-11-21T01:04:35;99183.03;;;19.48;62.45
39449;BME280;25151;45.566;9.382;2023-11-21T01:07:04;99166.69;;;19.47;62.01
39449;BME280;25151;45.566;9.382;2023-11-21T01:09:39;99173.06;;;19.47;62.21
39449;BME280;25151;45.566;9.382;2023-11-21T01:12:09;99166.69;;;19.47;62.24
39449;BME280;25151;45.566;9.382;2023-11-21T01:14:35;99165.13;;;19.46;62.28
39449;BME280;25151;45.566;9.382;2023-11-21T01:17:05;99161.56;;;19.45;62.25
39449;BME280;25151;45.566;9.382;2023-11-21T01:19:33;99154.72;;;19.46;62.54
39449;BME280;25151;45.566;9.382;2023-11-21T01:22:07;99163.59;;;19.45;62.10
39449;BME280;25151;45.566;9.382;2023-11-21T01:24:36;99157.22;;;19.44;62.43
39449;BME280;25151;45.566;9.382;2023-11-21T01:27:07;99155.97;;;19.45;62.43
39449;BME280;25151;45.566;9.382;2023-11-21T01:29:38;99147.25;;;19.43;62.20
39449;BME280;25151;45.566;9.382;2023-11-21T01:32:07;99146.47;;;19.42;62.41
39449;BME280;25151;45.566;9.382;2023-11-21T01:34:36;99140.88;;;19.42;62.28
39449;BME280;25151;45.566;9.382;2023-11-21T01:37:08;99135.28;;;19.42;62.14
39449;BME280;25151;45.566;9.382;2023-11-21T01:39:37;99128.16;;;19.41;62.21
39449;BME280;25151;45.566;9.382;2023-11-21T01:42:10;99123.31;;;19.42;62.14
39449;BME280;25151;45.566;9.382;2023-11-21T01:44:39;99133.75;;;19.41;62.32
39449;BME280;25151;45.566;9.382;2023-11-21T01:47:09;99125.00;;;19.39;62.33
39449;BME280;25151;45.566;9.382;2023-11-21T01:49:43;99125.78;;;19.40;62.23
39449;BME280;25151;45.566;9.382;2023-11-21T01:52:09;99126.59;;;19.40;62.20
39449;BME280;25151;45.566;9.382;2023-11-21T01:54:37;99122.22;;;19.39;62.29
39449;BME280;25151;45.566;9.382;2023-11-21T01:57:08;99122.69;;;19.38;62.19
39449;BME280;25151;45.566;9.382;2023-11-21T01:59:43;99128.28;;;19.38;62.16
39449;BME280;25151;45.566;9.382;2023-11-21T02:02:15;99118.66;;;19.39;62.30
39449;BME280;25151;45.566;9.382;2023-11-21T02:04:42;99117.88;;;19.38;62.16
39449;BME280;25151;45.566;9.382;2023-11-21T02:07:12;99110.72;;;19.37;62.28
39449;BME280;25151;45.566;9.382;2023-11-21T02:09:46;99105.13;;;19.37;62.31
39449;BME280;25151;45.566;9.382;2023-11-21T02:12:16;99110.72;;;19.37;62.28
39449;BME280;25151;45.566;9.382;2023-11-21T02:14:44;99119.56;;;19.36;62.25
39449;BME280;25151;45.566;9.382;2023-11-21T02:17:12;99116.75;;;19.36;62.30
39449;BME280;25151;45.566;9.382;2023-11-21T02:19:39;99111.16;;;19.36;62.13
39449;BME280;25151;45.566;9.382;2023-11-21T02:22:07;99101.22;;;19.35;62.32
39449;BME280;25151;45.566;9.382;2023-11-21T02:24:34;99102.47;;;19.34;62.22
39449;BME280;25151;45.566;9.382;2023-11-21T02:26:59;99096.09;;;19.33;62.25
39449;BME280;25151;45.566;9.382;2023-11-21T02:29:29;99098.44;;;19.35;62.30
39449;BME280;25151;45.566;9.382;2023-11-21T02:31:57;99090.53;;;19.33;62.23
39449;BME280;25151;45.566;9.382;2023-11-21T02:34:26;99086.16;;;19.32;62.16
39449;BME280;25151;45.566;9.382;2023-11-21T02:36:51;99086.94;;;19.33;62.17
39449;BME280;25151;45.566;9.382;2023-11-21T02:39:21;99079.78;;;19.32;62.36
39449;BME280;25151;45.566;9.382;2023-11-21T02:41:53;99079.78;;;19.32;62.25
39449;BME280;25151;45.566;9.382;2023-11-21T02:44:29;99079.78;;;19.32;62.28
39449;BME280;25151;45.566;9.382;2023-11-21T02:46:55;99079.78;;;19.32;62.37
39449;BME280;25151;45.566;9.382;2023-11-21T02:49:26;99078.22;;;19.31;62.11
39449;BME280;25151;45.566;9.382;2023-11-21T02:51:56;99079.00;;;19.31;62.30
39449;BME280;25151;45.566;9.382;2023-11-21T02:54:24;99075.44;;;19.31;62.33
39449;BME280;25151;45.566;9.382;2023-11-21T02:56:52;99078.22;;;19.31;62.42
39449;BME280;25151;45.566;9.382;2023-11-21T02:59:18;99078.22;;;19.31;62.42
39449;BME280;25151;45.566;9.382;2023-11-21T03:01:45;99081.03;;;19.31;62.38
39449;BME280;25151;45.566;9.382;2023-11-21T03:04:14;99083.03;;;19.30;62.25
39449;BME280;25151;45.566;9.382;2023-11-21T03:06:48;99093.44;;;19.30;62.33
39449;BME280;25151;45.566;9.382;2023-11-21T03:09:16;99090.66;;;19.30;62.20
39449;BME280;25151;45.566;9.382;2023-11-21T03:11:45;99075.13;;;19.29;62.19
39449;BME280;25151;45.566;9.382;2023-11-21T03:14:13;99086.31;;;19.29;62.26
39449;BME280;25151;45.566;9.382;2023-11-21T03:16:44;99083.50;;;19.29;62.20
39449;BME280;25151;45.566;9.382;2023-11-21T03:19:16;99085.53;;;19.28;62.24
39449;BME280;25151;45.566;9.382;2023-11-21T03:21:44;99095.91;;;19.28;62.33
39449;BME280;25151;45.566;9.382;2023-11-21T03:24:17;99089.53;;;19.27;62.31
39449;BME280;25151;45.566;9.382;2023-11-21T03:26:48;99095.91;;;19.28;62.33
39449;BME280;25151;45.566;9.382;2023-11-21T03:29:16;99085.97;;;19.27;62.20
39449;BME280;25151;45.566;9.382;2023-11-21T03:31:47;99083.16;;;19.27;62.31
39449;BME280;25151;45.566;9.382;2023-11-21T03:34:23;99081.63;;;19.26;62.17
39449;BME280;25151;45.566;9.382;2023-11-21T03:36:51;99081.63;;;19.26;62.25
39449;BME280;25151;45.566;9.382;2023-11-21T03:39:21;99085.66;;;19.25;62.29
39449;BME280;25151;45.566;9.382;2023-11-21T03:41:49;99081.63;;;19.26;62.41
39449;BME280;25151;45.566;9.382;2023-11-21T03:44:19;99076.81;;;19.26;62.30
39449;BME280;25151;45.566;9.382;2023-11-21T03:46:53;99075.69;;;19.24;62.24
39449;BME280;25151;45.566;9.382;2023-11-21T03:49:21;99076.47;;;19.24;62.15
39449;BME280;25151;45.566;9.382;2023-11-21T03:51:46;99077.72;;;19.23;62.31
39449;BME280;25151;45.566;9.382;2023-11-21T03:54:19;99084.84;;;19.24;62.14
39449;BME280;25151;45.566;9.382;2023-11-21T03:56:45;99080.50;;;19.23;62.43
39449;BME280;25151;45.566;9.382;2023-11-21T03:59:10;99088.91;;;19.23;62.15
39449;BME280;25151;45.566;9.382;2023-11-21T04:01:39;99086.88;;;19.24;62.36
39449;BME280;25151;45.566;9.382;2023-11-21T04:04:07;99088.13;;;19.23;62.36
39449;BME280;25151;45.566;9.382;2023-11-21T04:06:38;99082.53;;;19.23;62.41
39449;BME280;25151;45.566;9.382;2023-11-21T04:09:06;99081.75;;;19.22;62.23
39449;BME280;25151;45.566;9.382;2023-11-21T04:11:34;99083.78;;;19.22;62.42
39449;BME280;25151;45.566;9.382;2023-11-21T04:14:03;99075.38;;;19.22;62.36
39449;BME280;25151;45.566;9.382;2023-11-21T04:16:30;99069.81;;;19.22;62.13
39449;BME280;25151;45.566;9.382;2023-11-21T04:18:58;99060.31;;;19.19;62.39
39449;BME280;25151;45.566;9.382;2023-11-21T04:21:31;99069.47;;;19.20;62.46
39449;BME280;25151;45.566;9.382;2023-11-21T04:24:03;99068.25;;;19.21;62.21
39449;BME280;25151;45.566;9.382;2023-11-21T04:26:28;99063.09;;;19.19;62.51
39449;BME280;25151;45.566;9.382;2023-11-21T04:28:59;99060.31;;;19.19;62.45
39449;BME280;25151;45.566;9.382;2023-11-21T04:31:30;99066.66;;;19.20;62.21
39449;BME280;25151;45.566;9.382;2023-11-21T04:33:58;99060.31;;;19.19;62.39
39449;BME280;25151;45.566;9.382;2023-11-21T04:36:31;99062.31;;;19.19;62.29
39449;BME280;25151;45.566;9.382;2023-11-21T04:39:05;99065.13;;;19.19;62.33
39449;BME280;25151;45.566;9.382;2023-11-21T04:41:34;99052.38;;;19.17;62.60
39449;BME280;25151;45.566;9.382;2023-11-21T04:44:01;99054.41;;;19.17;62.39
39449;BME280;25151;45.566;9.382;2023-11-21T04:46:32;99056.44;;;19.16;62.25
39449;BME280;25151;45.566;9.382;2023-11-21T04:49:02;99056.44;;;19.16;62.33
39449;BME280;25151;45.566;9.382;2023-11-21T04:51:33;99065.59;;;19.17;62.65
39449;BME280;25151;45.566;9.382;2023-11-21T04:54:02;99067.59;;;19.16;62.39
39449;BME280;25151;45.566;9.382;2023-11-21T04:56:27;99065.59;;;19.17;62.45
39449;BME280;25151;45.566;9.382;2023-11-21T04:58:58;99066.38;;;19.17;62.29
39449;BME280;25151;45.566;9.382;2023-11-21T05:01:27;99062.78;;;19.17;62.30
39449;BME280;25151;45.566;9.382;2023-11-21T05:03:55;99063.22;;;19.15;62.24
39449;BME280;25151;45.566;9.382;2023-11-21T05:06:22;99074.41;;;19.15;62.34
39449;BME280;25151;45.566;9.382;2023-11-21T05:08:49;99074.41;;;19.15;62.53
39449;BME280;25151;45.566;9.382;2023-11-21T05:11:28;99073.63;;;19.15;62.41
39449;BME280;25151;45.566;9.382;2023-11-21T05:13:56;99076.44;;;19.15;62.51
39449;BME280;25151;45.566;9.382;2023-11-21T05:16:25;99076.44;;;19.15;62.48
39449;BME280;25151;45.566;9.382;2023-11-21T05:18:54;99081.25;;;19.14;62.50
39449;BME280;25151;45.566;9.382;2023-11-21T05:21:26;99074.88;;;19.14;62.40
39449;BME280;25151;45.566;9.382;2023-11-21T05:23:52;99076.91;;;19.13;62.39
39449;BME280;25151;45.566;9.382;2023-11-21T05:26:17;99075.34;;;19.12;62.29
39449;BME280;25151;45.566;9.382;2023-11-21T05:28:43;99067.75;;;19.13;62.32
39449;BME280;25151;45.566;9.382;2023-11-21T05:31:08;99067.75;;;19.13;62.31
39449;BME280;25151;45.566;9.382;2023-11-21T05:33:34;99068.53;;;19.13;62.34
39449;BME280;25151;45.566;9.382;2023-11-21T05:35:59;99065.38;;;19.11;62.42
39449;BME280;25151;45.566;9.382;2023-11-21T05:38:25;99072.56;;;19.12;62.51
39449;BME280;25151;45.566;9.382;2023-11-21T05:40:51;99064.59;;;19.11;62.22
39449;BME280;25151;45.566;9.382;2023-11-21T05:43:16;99065.38;;;19.11;62.54
39449;BME280;25151;45.566;9.382;2023-11-21T05:45:42;99065.38;;;19.11;62.54
39449;BME280;25151;45.566;9.382;2023-11-21T05:48:07;99074.53;;;19.12;62.34
39449;BME280;25151;45.566;9.382;2023-11-21T05:50:35;99070.97;;;19.11;62.51
39449;BME280;25151;45.566;9.382;2023-11-21T05:53:04;99077.81;;;19.10;62.28
39449;BME280;25151;45.566;9.382;2023-11-21T05:55:32;99064.59;;;19.11;62.44
39449;BME280;25151;45.566;9.382;2023-11-21T05:57:58;99071.44;;;19.10;62.47
39449;BME280;25151;45.566;9.382;2023-11-21T06:00:23;99069.44;;;19.10;62.30
39449;BME280;25151;45.566;9.382;2023-11-21T06:02:54;99067.09;;;19.09;62.45
39449;BME280;25151;45.566;9.382;2023-11-21T06:05:24;99073.47;;;19.09;62.35
39449;BME280;25151;45.566;9.382;2023-11-21T06:07:54;99058.72;;;19.09;62.28
39449;BME280;25151;45.566;9.382;2023-11-21T06:10:25;99067.88;;;19.09;62.55
39449;BME280;25151;45.566;9.382;2023-11-21T06:12:52;99069.44;;;19.10;62.49
39449;BME280;25151;45.566;9.382;2023-11-21T06:15:18;99073.47;;;19.09;62.49
39449;BME280;25151;45.566;9.382;2023-11-21T06:17:46;99066.28;;;19.08;62.37
39449;BME280;25151;45.566;9.382;2023-11-21T06:20:19;99066.28;;;19.08;62.54
39449;BME280;25151;45.566;9.382;2023-11-21T06:22:50;99064.75;;;19.07;62.42
39449;BME280;25151;45.566;9.382;2023-11-21T06:25:18;99060.69;;;19.08;62.48
39449;BME280;25151;45.566;9.382;2023-11-21T06:27:50;99062.28;;;19.09;62.32
39449;BME280;25151;45.566;9.382;2023-11-21T06:30:20;99056.69;;;19.09;62.46
39449;BME280;25151;45.566;9.382;2023-11-21T06:32:47;99061.38;;;19.12;62.52
39449;BME280;25151;45.566;9.382;2023-11-21T06:35:17;99059.66;;;19.15;62.50
39449;BME280;25151;45.566;9.382;2023-11-21T06:37:45;99052.38;;;19.17;62.50
39449;BME280;25151;45.566;9.382;2023-11-21T06:40:15;99054.59;;;19.23;62.52
39449;BME280;25151;45.566;9.382;2023-11-21T06:42:43;99056.47;;;19.26;62.44
39449;BME280;25151;45.566;9.382;2023-11-21T06:45:10;99054.31;;;19.30;62.39
39449;BME280;25151;45.566;9.382;2023-11-21T06:47:37;99053.41;;;19.33;62.42
39449;BME280;25151;45.566;9.382;2023-11-21T06:50:05;99056.06;;;19.36;62.66
39449;BME280;25151;45.566;9.382;2023-11-21T06:52:36;99053.09;;;19.40;62.54
39449;BME280;25151;45.566;9.382;2023-11-21T06:55:02;99059.34;;;19.44;62.32
39449;BME280;25151;45.566;9.382;2023-11-21T06:57:31;99065.59;;;19.48;62.22
39449;BME280;25151;45.566;9.382;2023-11-21T07:00:00;99057.38;;;19.54;62.25
39449;BME280;25151;45.566;9.382;2023-11-21T07:02:30;99060.03;;;19.57;62.59
39449;BME280;25151;45.566;9.382;2023-11-21T07:04:55;99057.88;;;19.61;62.38
39449;BME280;25151;45.566;9.382;2023-11-21T07:07:21;99058.53;;;19.65;62.26
39449;BME280;25151;45.566;9.382;2023-11-21T07:09:49;99051.06;;;19.72;62.19
39449;BME280;25151;45.566;9.382;2023-11-21T07:12:18;99047.69;;;19.77;62.33
39449;BME280;25151;45.566;9.382;2023-11-21T07:14:49;99047.06;;;19.82;62.27
39449;BME280;25151;45.566;9.382;2023-11-21T07:17:14;99059.22;;;19.88;62.01
39449;BME280;25151;45.566;9.382;2023-11-21T07:19:42;99049.72;;;19.95;62.00
39449;BME280;25151;45.566;9.382;2023-11-21T07:22:11;99061.88;;;20.01;62.00
39449;BME280;25151;45.566;9.382;2023-11-21T07:24:36;99051.63;;;20.07;61.79
39449;BME280;25151;45.566;9.382;2023-11-21T07:27:03;99057.84;;;20.11;61.97
39449;BME280;25151;45.566;9.382;2023-11-21T07:29:32;99060.19;;;20.12;61.82
39449;BME280;25151;45.566;9.382;2023-11-21T07:32:03;99068.88;;;20.14;61.71
39449;BME280;25151;45.566;9.382;2023-11-21T07:34:32;99068.28;;;20.20;61.60
39449;BME280;25151;45.566;9.382;2023-11-21T07:37:00;99045.91;;;20.20;61.90
39449;BME280;25151;45.566;9.382;2023-11-21T07:39:28;99050.88;;;20.25;61.71
39449;BME280;25151;45.566;9.382;2023-11-21T07:41:56;99044.94;;;20.23;61.64
39449;BME280;25151;45.566;9.382;2023-11-21T07:44:26;99053.34;;;20.23;61.54
39449;BME280;25151;45.566;9.382;2023-11-21T07:46:54;99056.91;;;20.23;61.54
39449;BME280;25151;45.566;9.382;2023-11-21T07:49:25;99053.66;;;20.25;61.67
39449;BME280;25151;45.566;9.382;2023-11-21T07:51:52;99055.22;;;20.26;61.64
39449;BME280;25151;45.566;9.382;2023-11-21T07:54:20;99043.25;;;20.25;61.79
39449;BME280;25151;45.566;9.382;2023-11-21T07:56:47;99058.03;;;20.26;61.67
39449;BME280;25151;45.566;9.382;2023-11-21T07:59:15;99067.66;;;20.25;61.74
39449;BME280;25151;45.566;9.382;2023-11-21T08:01:42;99065.16;;;20.27;61.79
39449;BME280;25151;45.566;9.382;2023-11-21T08:04:10;99069.22;;;20.26;61.40
39449;BME280;25151;45.566;9.382;2023-11-21T08:06:38;99067.97;;;20.27;61.62
39449;BME280;25151;45.566;9.382;2023-11-21T08:09:07;99049.63;;;20.26;61.30
39449;BME280;25151;45.566;9.382;2023-11-21T08:11:33;99055.22;;;20.26;61.24
39449;BME280;25151;45.566;9.382;2023-11-21T08:14:07;99053.66;;;20.25;61.53
39449;BME280;25151;45.566;9.382;2023-11-21T08:16:33;99053.66;;;20.25;61.42
39449;BME280;25151;45.566;9.382;2023-11-21T08:19:03;99049.63;;;20.26;61.24
39449;BME280;25151;45.566;9.382;2023-11-21T08:21:32;99060.03;;;20.25;61.42
39449;BME280;25151;45.566;9.382;2023-11-21T08:24:01;99053.66;;;20.25;61.54
39449;BME280;25151;45.566;9.382;2023-11-21T08:26:27;99034.06;;;20.25;61.42
39449;BME280;25151;45.566;9.382;2023-11-21T08:28:52;99048.06;;;20.25;61.07
39449;BME280;25151;45.566;9.382;2023-11-21T08:31:24;99031.28;;;20.25;61.52
39449;BME280;25151;45.566;9.382;2023-11-21T08:33:52;99046.53;;;20.24;61.21
39449;BME280;25151;45.566;9.382;2023-11-21T08:36:21;99032.19;;;20.22;61.14
39449;BME280;25151;45.566;9.382;2023-11-21T08:38:51;99029.72;;;20.24;61.20
39449;BME280;25151;45.566;9.382;2023-11-21T08:41:19;99019.75;;;20.23;61.28
39449;BME280;25151;45.566;9.382;2023-11-21T08:43:51;99020.22;;;20.21;61.13
39449;BME280;25151;45.566;9.382;2023-11-21T08:46:20;99018.22;;;20.22;61.36
39449;BME280;25151;45.566;9.382;2023-11-21T08:48:50;99012.31;;;20.20;61.49
39449;BME280;25151;45.566;9.382;2023-11-21T08:51:20;99012.31;;;20.20;61.41
39449;BME280;25151;45.566;9.382;2023-11-21T08:53:48;99015.13;;;20.20;61.34
39449;BME280;25151;45.566;9.382;2023-11-21T08:56:17;99006.72;;;20.20;61.41
39449;BME280;25151;45.566;9.382;2023-11-21T08:58:46;99008.72;;;20.19;61.26
39449;BME280;25151;45.566;9.382;2023-11-21T09:01:14;99003.91;;;20.20;61.50
39449;BME280;25151;45.566;9.382;2023-11-21T09:03:44;98995.50;;;20.20;61.38
39449;BME280;25151;45.566;9.382;2023-11-21T09:06:12;99001.13;;;20.20;61.17
39449;BME280;25151;45.566;9.382;2023-11-21T09:08:39;99003.09;;;20.19;61.23
39449;BME280;25151;45.566;9.382;2023-11-21T09:11:07;99001.13;;;20.20;61.39
39449;BME280;25151;45.566;9.382;2023-11-21T09:13:33;98993.16;;;20.18;61.28
39449;BME280;25151;45.566;9.382;2023-11-21T09:16:01;99004.34;;;20.18;61.54
39449;BME280;25151;45.566;9.382;2023-11-21T09:18:27;99002.03;;;20.17;61.31
39449;BME280;25151;45.566;9.382;2023-11-21T09:20:52;98996.44;;;20.17;60.99
39449;BME280;25151;45.566;9.382;2023-11-21T09:23:18;98992.88;;;20.16;61.33
39449;BME280;25151;45.566;9.382;2023-11-21T09:25:46;98989.28;;;20.16;61.54
39449;BME280;25151;45.566;9.382;2023-11-21T09:28:15;98980.56;;;20.13;61.51
39449;BME280;25151;45.566;9.382;2023-11-21T09:30:41;98984.16;;;20.14;61.18
39449;BME280;25151;45.566;9.382;2023-11-21T09:33:06;98991.78;;;20.13;61.20
39449;BME280;25151;45.566;9.382;2023-11-21T09:35:40;99002.19;;;20.13;61.62
39449;BME280;25151;45.566;9.382;2023-11-21T09:38:05;98998.63;;;20.12;61.31
39449;BME280;25151;45.566;9.382;2023-11-21T09:40:35;98985.88;;;20.11;61.18
39449;BME280;25151;45.566;9.382;2023-11-21T09:43:16;98979.03;;;20.12;61.48
39449;BME280;25151;45.566;9.382;2023-11-21T09:45:47;98985.88;;;20.11;61.50
39449;BME280;25151;45.566;9.382;2023-11-21T09:48:16;98981.50;;;20.10;61.27
39449;BME280;25151;45.566;9.382;2023-11-21T09:50:43;98980.28;;;20.11;61.37
39449;BME280;25151;45.566;9.382;2023-11-21T09:53:19;98965.47;;;20.11;61.55
39449;BME280;25151;45.566;9.382;2023-11-21T09:55:53;98969.09;;;20.11;61.53
39449;BME280;25151;45.566;9.382;2023-11-21T09:58:19;98961.13;;;20.10;61.40
39449;BME280;25151;45.566;9.382;2023-11-21T10:00:48;98970.31;;;20.10;61.22
39449;BME280;25151;45.566;9.382;2023-11-21T10:03:16;98964.69;;;20.10;61.47
39449;BME280;25151;45.566;9.382;2023-11-21T10:05:43;98953.50;;;20.10;61.14
39449;BME280;25151;45.566;9.382;2023-11-21T10:08:12;98961.13;;;20.10;61.36
39449;BME280;25151;45.566;9.382;2023-11-21T10:10:43;98959.09;;;20.10;61.52
39449;BME280;25151;45.566;9.382;2023-11-21T10:13:12;98951.97;;;20.09;61.51
39449;BME280;25151;45.566;9.382;2023-11-21T10:15:48;98951.97;;;20.09;61.53
39449;BME280;25151;45.566;9.382;2023-11-21T10:18:15;98949.63;;;20.08;61.44
39449;BME280;25151;45.566;9.382;2023-11-21T10:20:41;98944.03;;;20.08;61.35
39449;BME280;25151;45.566;9.382;2023-11-21T10:23:06;98936.88;;;20.07;61.51
39449;BME280;25151;45.566;9.382;2023-11-21T10:25:36;98936.09;;;20.06;61.38
39449;BME280;25151;45.566;9.382;2023-11-21T10:28:03;98926.44;;;20.07;61.59
39449;BME280;25151;45.566;9.382;2023-11-21T10:30:37;98929.56;;;20.09;61.30
39449;BME280;25151;45.566;9.382;2023-11-21T10:33:07;98928.31;;;20.10;61.47
39449;BME280;25151;45.566;9.382;2023-11-21T10:35:46;98920.69;;;20.11;61.49
39449;BME280;25151;45.566;9.382;2023-11-21T10:38:18;98926.28;;;20.11;61.26
39449;BME280;25151;45.566;9.382;2023-11-21T10:40:50;98921.50;;;20.11;61.34
39449;BME280;25151;45.566;9.382;2023-11-21T10:43:18;98927.09;;;20.11;61.22
39449;BME280;25151;45.566;9.382;2023-11-21T10:45:46;98928.66;;;20.12;61.54
39449;BME280;25151;45.566;9.382;2023-11-21T10:48:18;98917.75;;;20.14;61.42
39449;BME280;25151;45.566;9.382;2023-11-21T10:50:48;98911.69;;;20.16;61.25
39449;BME280;25151;45.566;9.382;2023-11-21T10:53:17;98912.47;;;20.17;61.56
39449;BME280;25151;45.566;9.382;2023-11-21T10:55:47;98925.69;;;20.16;61.51
39449;BME280;25151;45.566;9.382;2023-11-21T10:58:18;98914.94;;;20.14;61.34
39449;BME280;25151;45.566;9.382;2023-11-21T11:00:44;98919.00;;;20.13;61.14
39449;BME280;25151;45.566;9.382;2023-11-21T11:03:13;98915.72;;;20.15;61.15
39449;BME280;25151;45.566;9.382;2023-11-21T11:05:40;98915.72;;;20.15;61.46
39449;BME280;25151;45.566;9.382;2023-11-21T11:08:14;98927.72;;;20.16;61.37
39449;BME280;25151;45.566;9.382;2023-11-21T11:10:45;98926.47;;;20.17;61.26
39449;BME280;25151;45.566;9.382;2023-11-21T11:13:13;98929.25;;;20.17;61.47
39449;BME280;25151;45.566;9.382;2023-11-21T11:15:49;98923.66;;;20.17;61.37
39449;BME280;25151;45.566;9.382;2023-11-21T11:18:21;98918.06;;;20.17;61.35
39449;BME280;25151;45.566;9.382;2023-11-21T11:20:48;98912.47;;;20.17;61.50
39449;BME280;25151;45.566;9.382;2023-11-21T11:29:35;98898.47;;;20.17;61.26
39449;BME280;25151;45.566;9.382;2023-11-21T11:34:54;98901.28;;;20.17;61.32
39449;BME280;25151;45.566;9.382;2023-11-21T11:37:24;98900.03;;;20.18;61.44
39449;BME280;25151;45.566;9.382;2023-11-21T11:39:55;98898.78;;;20.19;61.21
39449;BME280;25151;45.566;9.382;2023-11-21T11:42:26;98895.19;;;20.18;61.58
39449;BME280;25151;45.566;9.382;2023-11-21T11:44:52;98895.97;;;20.19;61.40
39449;BME280;25151;45.566;9.382;2023-11-21T11:52:52;98898.78;;;20.19;61.36
39449;BME280;25151;45.566;9.382;2023-11-21T11:55:24;98897.06;;;20.21;61.31
39449;BME280;25151;45.566;9.382;2023-11-21T11:57:53;98899.38;;;20.23;61.28
39449;BME280;25151;45.566;9.382;2023-11-21T12:00:34;98891.00;;;20.23;61.54
39449;BME280;25151;45.566;9.382;2023-11-21T12:03:08;98894.56;;;20.23;61.52
39449;BME280;25151;45.566;9.382;2023-11-21T12:05:40;98889.75;;;20.24;61.60
39449;BME280;25151;45.566;9.382;2023-11-21T12:08:11;98881.38;;;20.24;61.29
39449;BME280;25151;45.566;9.382;2023-11-21T12:10:42;98880.09;;;20.25;61.58
39449;BME280;25151;45.566;9.382;2023-11-21T12:13:10;98877.59;;;20.27;61.47
39449;BME280;25151;45.566;9.382;2023-11-21T12:15:39;98876.06;;;20.26;61.47
39449;BME280;25151;45.566;9.382;2023-11-21T12:18:07;98886.00;;;20.27;61.58
39449;BME280;25151;45.566;9.382;2023-11-21T12:20:34;98879.19;;;20.28;61.65
39449;BME280;25151;45.566;9.382;2023-11-21T12:23:05;98872.00;;;20.27;61.35
39449;BME280;25151;45.566;9.382;2023-11-21T12:25:34;98869.53;;;20.29;61.31
39449;BME280;25151;45.566;9.382;2023-11-21T12:28:02;98868.75;;;20.28;61.63
39449;BME280;25151;45.566;9.382;2023-11-21T12:30:35;98875.13;;;20.29;61.43
39449;BME280;25151;45.566;9.382;2023-11-21T12:38:44;98868.28;;;20.30;61.56
39449;BME280;25151;45.566;9.382;2023-11-21T12:41:28;98871.06;;;20.30;61.31
39449;BME280;25151;45.566;9.382;2023-11-21T12:43:59;98869.81;;;20.31;61.51
39449;BME280;25151;45.566;9.382;2023-11-21T12:46:36;98865.78;;;20.32;61.67
39449;BME280;25151;45.566;9.382;2023-11-21T12:49:13;98872.94;;;20.33;61.64
39449;BME280;25151;45.566;9.382;2023-11-21T12:51:45;98877.28;;;20.34;61.52
39449;BME280;25151;45.566;9.382;2023-11-21T12:54:20;98875.25;;;20.34;61.74
39449;BME280;25151;45.566;9.382;2023-11-21T12:56:50;98869.66;;;20.34;61.32
39449;BME280;25151;45.566;9.382;2023-11-21T12:59:26;98869.66;;;20.34;61.84
39449;BME280;25151;45.566;9.382;2023-11-21T13:01:56;98873.22;;;20.35;61.58
39449;BME280;25151;45.566;9.382;2023-11-21T13:04:32;98870.44;;;20.35;61.75
39449;BME280;25151;45.566;9.382;2023-11-21T13:07:06;98877.28;;;20.34;61.81
39449;BME280;25151;45.566;9.382;2023-11-21T13:09:41;98878.81;;;20.35;61.49
39449;BME280;25151;45.566;9.382;2023-11-21T13:12:10;98876.03;;;20.35;61.61
39449;BME280;25151;45.566;9.382;2023-11-21T13:14:39;98879.63;;;20.35;61.67
39449;BME280;25151;45.566;9.382;2023-11-21T13:17:06;98886.00;;;20.36;61.95
39449;BME280;25151;45.566;9.382;2023-11-21T13:19:39;98890.81;;;20.35;61.64
39449;BME280;25151;45.566;9.382;2023-11-21T13:22:05;98886.78;;;20.36;61.83
39449;BME280;25151;45.566;9.382;2023-11-21T13:24:37;98892.38;;;20.36;61.70
39449;BME280;25151;45.566;9.382;2023-11-21T13:27:05;98890.81;;;20.35;61.65
39449;BME280;25151;45.566;9.382;2023-11-21T13:29:38;98895.63;;;20.35;61.69
39449;BME280;25151;45.566;9.382;2023-11-21T13:32:07;98889.56;;;20.36;62.07